LQTZ/TZL METAR and TAF weather

Enter ICAO airport designator
Station Type Date Time Source
LQTZ METAR 2020/01/19 14:30 UTC NOAA

LQTZ 191430Z 28003KT 1500 BR BKN004 OVC008 M00/M00 Q1029


Station Type Date Time Source
LQTZ Decoded METAR 2020/01/19 14:30 UTC NOAA

Tuzla, Bosnia and Herzegovina (LQTZ) 44-33N 018-42E
Jan 19, 2020 - 09:30 AM EST / 2020.01.19 1430 UTC
Wind: from the W (280 degrees) at 3 MPH (3 KT):0
Visibility: less than 1 mile:0
Sky conditions: overcast
Weather: mist
Temperature: 32 F (0 C)
Dew Point: 32 F (0 C)
Relative Humidity: 100%
Pressure (altimeter): 30.39 in. Hg (1029 hPa)
ob: LQTZ 191430Z 28003KT 1500 BR BKN004 OVC008 M00/M00 Q1029
cycle: 14

Station Type Date Time Source
LQTZ TAF 2020/01/19 12:06 UTC NOAA

TAF LQTZ 191100Z 1912/2012 30004KT 3000 BR BKN005 OVC013 TX01/1913Z TNM03/2006Z PROB40
TEMPO 1912/2012 1200 -SN BR OVC003

Example: see airport list